Time;durP1;ratioP1;P1;durP2;ratioP2;P2;SDS_P1;SDS_P2;PMS_P1;PMS_P2;Temp;Humidity;BMP_temperature;BMP_pressure;BME280_temperature;BME280_humidity;BME280_pressure;Samples;Min_cycle;Max_cycle;Signal;HPM_P1;HPM_P2
2022/12/15 00:38:56;;;;;;;32.43;16.03;;;;;;;;;;6623873;28;20163;-82
2022/12/15 00:42:07;;;;;;;30.07;15.90;;;;;;;;;;6623805;28;20657;-82
2022/12/15 00:45:17;;;;;;;28.27;16.00;;;;;;;;;;6624038;28;20168;-82
2022/12/15 00:48:28;;;;;;;33.17;17.10;;;;;;;;;;6623550;28;20613;-82
2022/12/15 01:22:59;;;;;;;28.17;15.80;;;;;;;;;;6623060;28;20225;-81
2022/12/15 01:26:10;;;;;;;33.23;18.07;;;;;;;;;;6622639;28;20168;-82
2022/12/15 01:29:20;;;;;;;35.50;19.23;;;;;;;;;;6622656;28;20535;-82
2022/12/15 01:32:30;;;;;;;33.33;18.47;;;;;;;;;;6622694;28;20195;-81
2022/12/15 01:35:41;;;;;;;32.13;18.10;;;;;;;;;;6637503;28;20180;-82
2022/12/15 01:38:51;;;;;;;32.43;19.27;;;;;;;;;;6622429;28;20172;-81
2022/12/15 01:42:01;;;;;;;34.10;17.77;;;;;;;;;;6622428;28;20196;-82
2022/12/15 01:45:27;;;;;;;33.07;17.40;;;;;;;;;;6621684;28;20167;-82
2022/12/15 01:48:45;;;;;;;33.13;18.57;;;;;;;;;;6622227;28;20164;-83
2022/12/15 01:51:58;;;;;;;38.80;19.50;;;;;;;;;;6622883;28;20168;-82
2022/12/15 01:55:09;;;;;;;39.10;21.10;;;;;;;;;;6621842;28;20638;-82
2022/12/15 01:58:21;;;;;;;32.67;18.57;;;;;;;;;;6621789;28;20164;-81
2022/12/15 02:01:31;;;;;;;30.43;18.07;;;;;;;;;;6622156;28;20211;-82
2022/12/15 02:04:42;;;;;;;31.23;18.37;;;;;;;;;;6621844;28;20174;-82
2022/12/15 02:07:53;;;;;;;32.20;17.93;;;;;;;;;;6621626;28;20213;-82
2022/12/15 02:11:15;;;;;;;32.47;17.13;;;;;;;;;;6620898;28;20696;-82
2022/12/15 02:14:46;;;;;;;32.30;18.33;;;;;;;;;;6621501;28;20168;-82
2022/12/15 02:18:04;;;;;;;30.93;16.97;;;;;;;;;;6620993;28;20183;-82
2022/12/15 02:21:18;;;;;;;29.93;16.70;;;;;;;;;;6621105;28;20557;-82
2022/12/15 02:24:34;;;;;;;36.23;17.97;;;;;;;;;;6621695;28;20172;-82
2022/12/15 02:28:00;;;;;;;44.00;22.13;;;;;;;;;;6621041;28;20554;-82
2022/12/15 02:34:56;;;;;;;46.67;23.47;;;;;;;;;;6620791;28;20167;-82
2022/12/15 02:38:07;;;;;;;34.47;18.17;;;;;;;;;;6636535;28;20188;-82
2022/12/15 02:41:29;;;;;;;39.40;19.67;;;;;;;;;;6620862;28;20210;-82
2022/12/15 02:44:42;;;;;;;33.03;17.17;;;;;;;;;;6621061;28;20184;-82
2022/12/15 02:47:53;;;;;;;36.60;18.13;;;;;;;;;;6621253;28;20168;-82
2022/12/15 02:51:10;;;;;;;35.00;17.90;;;;;;;;;;6621697;28;20560;-82
2022/12/15 02:54:35;;;;;;;36.57;18.77;;;;;;;;;;6619859;28;20164;-82
2022/12/15 02:57:45;;;;;;;37.20;18.27;;;;;;;;;;6621071;28;20175;-82
2022/12/15 03:00:59;;;;;;;34.37;18.50;;;;;;;;;;6620746;28;20580;-82
2022/12/15 03:04:10;;;;;;;34.17;17.70;;;;;;;;;;6621040;28;20176;-82
2022/12/15 03:07:21;;;;;;;35.80;18.00;;;;;;;;;;6621175;28;20221;-82
2022/12/15 03:10:32;;;;;;;33.47;18.50;;;;;;;;;;6621203;28;20302;-82
2022/12/15 03:13:42;;;;;;;33.43;18.77;;;;;;;;;;6621089;28;20618;-82
2022/12/15 03:16:53;;;;;;;31.57;18.70;;;;;;;;;;6620272;28;20168;-82
2022/12/15 03:20:04;;;;;;;34.27;19.03;;;;;;;;;;6620770;28;20198;-82
2022/12/15 03:23:14;;;;;;;35.67;19.13;;;;;;;;;;6623700;28;20180;-90
2022/12/15 03:26:24;;;;;;;31.57;18.67;;;;;;;;;;6626282;28;20641;-82
2022/12/15 03:29:35;;;;;;;36.03;19.13;;;;;;;;;;6626152;28;20167;-82
2022/12/15 03:32:45;;;;;;;38.20;19.83;;;;;;;;;;6625996;28;20709;-91
2022/12/15 03:35:55;;;;;;;33.50;18.30;;;;;;;;;;6625989;28;20168;-82
2022/12/15 03:39:06;;;;;;;38.77;19.47;;;;;;;;;;6625778;28;20168;-82
2022/12/15 03:42:47;;;;;;;33.50;18.20;;;;;;;;;;6625501;28;20199;-88
2022/12/15 03:45:46;;;;;;;38.57;20.20;;;;;;;;;;6625746;28;20693;-89
2022/12/15 03:48:57;;;;;;;35.93;19.80;;;;;;;;;;6626206;28;20182;-82
2022/12/15 03:52:07;;;;;;;38.47;20.43;;;;;;;;;;6625519;28;20179;-82
2022/12/15 03:55:18;;;;;;;34.97;19.70;;;;;;;;;;6624770;28;20191;-83
2022/12/15 03:58:29;;;;;;;35.50;19.07;;;;;;;;;;6625773;28;20190;-82
2022/12/15 04:01:44;;;;;;;33.47;18.67;;;;;;;;;;6624675;28;20215;-82
2022/12/15 04:04:54;;;;;;;36.23;19.97;;;;;;;;;;6624963;28;20175;-82
2022/12/15 04:08:05;;;;;;;37.43;20.37;;;;;;;;;;6625194;28;20517;-82
2022/12/15 04:11:16;;;;;;;37.73;19.80;;;;;;;;;;6624694;28;20227;-82
2022/12/15 04:14:26;;;;;;;35.73;19.57;;;;;;;;;;6624306;28;20172;-82
2022/12/15 04:17:37;;;;;;;38.80;20.13;;;;;;;;;;6624942;28;20527;-82
2022/12/15 04:20:47;;;;;;;38.30;20.80;;;;;;;;;;6624826;28;20250;-82
2022/12/15 05:34:00;;;;;;;30.17;17.67;;;;;;;;;;6622423;28;20181;-82
2022/12/15 05:37:11;;;;;;;39.57;20.93;;;;;;;;;;6622503;28;20164;-82
2022/12/15 05:40:21;;;;;;;37.27;21.23;;;;;;;;;;6622326;28;20199;-82
2022/12/15 05:43:31;;;;;;;37.20;20.40;;;;;;;;;;6622154;28;20172;-83
2022/12/15 05:46:41;;;;;;;31.27;17.13;;;;;;;;;;6621573;28;20175;-82
2022/12/15 05:49:52;;;;;;;45.43;22.63;;;;;;;;;;6622147;28;20174;-82
2022/12/15 05:53:02;;;;;;;44.23;21.80;;;;;;;;;;6622304;28;20172;-82
2022/12/15 05:56:13;;;;;;;42.20;23.80;;;;;;;;;;6622473;28;20172;-82
2022/12/15 05:59:24;;;;;;;42.80;23.67;;;;;;;;;;6621933;28;20250;-82
2022/12/15 06:02:35;;;;;;;44.73;21.30;;;;;;;;;;6621570;28;20242;-83
2022/12/15 06:05:45;;;;;;;41.77;21.30;;;;;;;;;;6622641;28;20172;-82
2022/12/15 06:08:55;;;;;;;36.73;19.87;;;;;;;;;;6621834;28;20183;-82
2022/12/15 06:12:06;;;;;;;44.57;24.87;;;;;;;;;;6621345;28;20223;-83
2022/12/15 06:15:16;;;;;;;44.03;23.83;;;;;;;;;;6622113;28;20175;-82
2022/12/15 06:18:30;;;;;;;51.20;26.10;;;;;;;;;;6621891;28;20282;-82
2022/12/15 06:21:41;;;;;;;41.30;21.67;;;;;;;;;;6621824;28;20199;-82
2022/12/15 06:24:51;;;;;;;38.60;20.60;;;;;;;;;;6621448;28;20651;-82
2022/12/15 06:28:01;;;;;;;72.80;37.77;;;;;;;;;;6621485;28;20535;-83
2022/12/15 06:31:12;;;;;;;50.00;27.20;;;;;;;;;;6621427;28;20183;-82
2022/12/15 06:34:22;;;;;;;50.70;27.03;;;;;;;;;;6620963;28;20544;-82
2022/12/15 06:37:32;;;;;;;49.03;27.43;;;;;;;;;;6621261;28;20613;-83
2022/12/15 06:40:43;;;;;;;44.57;24.27;;;;;;;;;;6621072;28;20207;-82
2022/12/15 06:43:56;;;;;;;42.87;23.53;;;;;;;;;;6621427;28;20172;-82
2022/12/15 06:47:07;;;;;;;45.33;23.10;;;;;;;;;;6620850;28;20167;-82
2022/12/15 06:50:18;;;;;;;42.77;22.03;;;;;;;;;;6621227;28;20261;-82
2022/12/15 06:53:28;;;;;;;33.97;19.00;;;;;;;;;;6620741;28;20230;-82
2022/12/15 06:56:39;;;;;;;47.27;24.30;;;;;;;;;;6622348;28;20505;-83
2022/12/15 06:59:49;;;;;;;46.47;23.27;;;;;;;;;;6621202;28;20199;-82
2022/12/15 07:02:59;;;;;;;43.30;23.77;;;;;;;;;;6621042;28;20544;-82
2022/12/15 07:06:11;;;;;;;53.77;26.50;;;;;;;;;;6620490;28;20168;-83
2022/12/15 07:09:21;;;;;;;49.20;26.30;;;;;;;;;;6621142;28;20171;-83
2022/12/15 07:12:32;;;;;;;51.07;27.00;;;;;;;;;;6620851;28;20227;-82
2022/12/15 07:15:43;;;;;;;49.37;26.20;;;;;;;;;;6620772;28;20167;-83
2022/12/15 07:18:53;;;;;;;48.67;24.37;;;;;;;;;;6620962;28;20232;-83
2022/12/15 07:22:03;;;;;;;39.90;21.47;;;;;;;;;;6621067;28;20199;-82
2022/12/15 07:25:14;;;;;;;57.60;31.97;;;;;;;;;;6621173;28;20209;-83
2022/12/15 07:28:24;;;;;;;51.73;26.60;;;;;;;;;;6620801;28;20622;-83
2022/12/15 07:31:34;;;;;;;56.23;31.60;;;;;;;;;;6621109;28;20203;-87
2022/12/15 07:34:45;;;;;;;54.13;27.07;;;;;;;;;;6620329;28;20176;-82
2022/12/15 07:37:55;;;;;;;55.40;29.07;;;;;;;;;;6620723;28;20176;-82
2022/12/15 07:41:06;;;;;;;59.67;32.23;;;;;;;;;;6620511;28;20294;-90
2022/12/15 07:44:16;;;;;;;53.13;29.07;;;;;;;;;;6620255;28;20167;-83
2022/12/15 07:47:27;;;;;;;53.67;27.10;;;;;;;;;;6620594;28;20200;-82
2022/12/15 07:50:38;;;;;;;48.77;27.07;;;;;;;;;;6619718;28;20172;-83
2022/12/15 07:53:49;;;;;;;52.67;27.37;;;;;;;;;;6619055;28;20178;-83
2022/12/15 07:57:01;;;;;;;57.37;29.77;;;;;;;;;;6619038;28;20175;-82
2022/12/15 08:00:13;;;;;;;57.57;27.67;;;;;;;;;;6619825;28;20214;-83
2022/12/15 08:03:23;;;;;;;48.63;26.93;;;;;;;;;;6620303;28;20199;-83
2022/12/15 08:06:34;;;;;;;50.27;28.23;;;;;;;;;;6620529;28;20226;-83
2022/12/15 08:09:46;;;;;;;51.33;26.13;;;;;;;;;;6623348;28;20258;-83
2022/12/15 08:12:56;;;;;;;48.23;25.23;;;;;;;;;;6624823;28;20685;-83
2022/12/15 08:16:07;;;;;;;63.60;30.27;;;;;;;;;;6625189;28;20217;-83
2022/12/15 08:19:17;;;;;;;65.83;32.97;;;;;;;;;;6624439;28;20202;-83
2022/12/15 08:22:28;;;;;;;59.30;32.50;;;;;;;;;;6623885;28;20199;-82
2022/12/15 08:25:38;;;;;;;56.47;29.50;;;;;;;;;;6623751;28;20183;-82
2022/12/15 08:28:48;;;;;;;52.23;26.80;;;;;;;;;;6623203;28;20172;-82
2022/12/15 08:31:59;;;;;;;52.53;28.67;;;;;;;;;;6624431;28;20183;-82
2022/12/15 08:35:10;;;;;;;39.77;21.00;;;;;;;;;;6623915;28;20172;-82
2022/12/15 08:38:20;;;;;;;56.37;28.10;;;;;;;;;;6624595;28;20350;-82
2022/12/15 08:41:31;;;;;;;52.20;25.93;;;;;;;;;;6624338;28;20207;-82
2022/12/15 08:44:41;;;;;;;54.13;27.10;;;;;;;;;;6623376;28;20211;-89
2022/12/15 08:47:51;;;;;;;54.37;28.37;;;;;;;;;;6623521;28;20199;-82
2022/12/15 08:51:02;;;;;;;50.03;25.00;;;;;;;;;;6623544;28;20168;-82
2022/12/15 08:54:12;;;;;;;53.87;26.70;;;;;;;;;;6623719;28;20551;-86
2022/12/15 08:57:22;;;;;;;53.47;28.63;;;;;;;;;;6624148;28;20175;-82
2022/12/15 09:00:33;;;;;;;59.53;26.60;;;;;;;;;;6623445;28;20296;-82
2022/12/15 09:03:43;;;;;;;52.73;27.87;;;;;;;;;;6623784;28;20258;-84
2022/12/15 09:06:54;;;;;;;46.80;23.60;;;;;;;;;;6623246;28;20576;-82
2022/12/15 09:10:04;;;;;;;55.83;29.13;;;;;;;;;;6623523;28;20246;-82
2022/12/15 09:13:15;;;;;;;51.83;25.67;;;;;;;;;;6622998;28;20231;-83
2022/12/15 09:16:26;;;;;;;43.70;23.63;;;;;;;;;;6618634;28;20180;-83
2022/12/15 09:19:37;;;;;;;53.97;27.87;;;;;;;;;;6626322;28;20178;-82
2022/12/15 09:22:47;;;;;;;52.60;26.50;;;;;;;;;;6622800;28;20211;-83
2022/12/15 09:25:58;;;;;;;53.07;27.43;;;;;;;;;;6623450;28;20168;-82
2022/12/15 09:29:10;;;;;;;53.83;26.17;;;;;;;;;;6623661;28;20222;-82
2022/12/15 09:32:21;;;;;;;56.47;26.70;;;;;;;;;;6624963;28;20172;-82
2022/12/15 09:35:31;;;;;;;56.17;27.60;;;;;;;;;;6623708;28;20609;-82
2022/12/15 09:38:42;;;;;;;51.60;28.20;;;;;;;;;;6623747;28;20532;-82
2022/12/15 09:41:54;;;;;;;49.73;25.53;;;;;;;;;;6624299;28;20210;-82
2022/12/15 09:45:09;;;;;;;47.93;24.73;;;;;;;;;;6623817;28;20172;-82
2022/12/15 09:48:20;;;;;;;36.53;20.23;;;;;;;;;;6623867;28;20172;-82
2022/12/15 09:51:38;;;;;;;51.43;26.13;;;;;;;;;;6624107;28;20314;-82
2022/12/15 09:54:48;;;;;;;65.00;29.30;;;;;;;;;;6623347;28;20630;-82
2022/12/15 09:57:58;;;;;;;60.17;28.47;;;;;;;;;;6622844;28;20229;-82
2022/12/15 10:01:11;;;;;;;59.47;28.77;;;;;;;;;;6621861;28;20281;-82
2022/12/15 10:04:46;;;;;;;57.13;27.80;;;;;;;;;;6620841;28;20171;-82
2022/12/15 10:07:57;;;;;;;45.63;24.60;;;;;;;;;;6620711;28;20172;-82
2022/12/15 10:11:18;;;;;;;50.40;24.70;;;;;;;;;;6622092;28;20220;-82
2022/12/15 10:14:47;;;;;;;44.43;22.93;;;;;;;;;;6622360;28;20176;-82
2022/12/15 10:18:00;;;;;;;49.87;26.90;;;;;;;;;;6623178;28;20168;-82
2022/12/15 10:21:13;;;;;;;47.33;25.70;;;;;;;;;;6623190;28;20204;-82
2022/12/15 10:24:26;;;;;;;44.97;23.60;;;;;;;;;;6622598;28;20172;-82
2022/12/15 10:27:53;;;;;;;44.43;24.57;;;;;;;;;;6622867;28;20203;-82
2022/12/15 10:31:11;;;;;;;42.17;22.53;;;;;;;;;;6622085;28;20175;-82
2022/12/15 10:34:26;;;;;;;44.37;22.70;;;;;;;;;;6620523;28;20187;-82
2022/12/15 10:37:37;;;;;;;43.43;23.17;;;;;;;;;;6596910;28;20247;-82
2022/12/15 10:40:50;;;;;;;36.70;20.63;;;;;;;;;;6596488;28;20233;-82
2022/12/15 10:44:01;;;;;;;31.37;18.80;;;;;;;;;;6596105;28;20164;-82
2022/12/15 10:47:15;;;;;;;34.90;19.60;;;;;;;;;;6597139;28;20172;-81
2022/12/15 10:58:15;;;;;;;31.43;18.57;;;;;;;;;;6675521;28;20178;-81
2022/12/15 11:01:30;;;;;;;32.77;18.60;;;;;;;;;;6674390;28;20218;-81
2022/12/15 11:04:59;;;;;;;32.83;19.53;;;;;;;;;;6675880;28;20162;-81
2022/12/15 11:08:16;;;;;;;42.43;22.00;;;;;;;;;;6702286;28;20212;-81
2022/12/15 11:15:22;;;;;;;40.97;22.77;;;;;;;;;;6700837;28;20189;-81
2022/12/15 11:18:47;;;;;;;42.60;22.87;;;;;;;;;;6701068;28;20223;-81
2022/12/15 11:22:00;;;;;;;54.67;27.47;;;;;;;;;;6698074;28;20210;-81
2022/12/15 11:25:19;;;;;;;48.17;24.80;;;;;;;;;;6701495;28;20166;-81
2022/12/15 11:28:59;;;;;;;40.13;22.73;;;;;;;;;;6699757;28;20178;-81
2022/12/15 11:36:30;;;;;;;48.47;24.60;;;;;;;;;;6594044;28;20600;-81
2022/12/15 11:39:40;;;;;;;47.47;23.83;;;;;;;;;;6590526;28;20272;-81
2022/12/15 11:43:09;;;;;;;37.90;20.60;;;;;;;;;;6593516;28;20666;-81
2022/12/15 11:46:25;;;;;;;48.50;23.27;;;;;;;;;;6597094;28;20263;-81
2022/12/15 12:08:25;;;;;;;48.17;25.60;;;;;;;;;;6572451;28;20542;-81
2022/12/15 12:15:31;;;;;;;42.70;24.00;;;;;;;;;;6599051;28;20320;-81
2022/12/15 12:19:10;;;;;;;48.50;23.63;;;;;;;;;;6678558;28;20159;-81
2022/12/15 12:38:07;;;;;;;53.63;28.03;;;;;;;;;;6543635;28;20520;-81
2022/12/15 12:45:11;;;;;;;49.23;25.57;;;;;;;;;;6568992;28;20173;-81
2022/12/15 12:52:31;;;;;;;55.37;29.33;;;;;;;;;;6568191;28;20222;-81
2022/12/15 12:55:49;;;;;;;54.27;27.00;;;;;;;;;;6559647;28;20611;-81
2022/12/15 12:59:06;;;;;;;50.50;27.27;;;;;;;;;;6566884;28;20173;-81
2022/12/15 13:23:26;;;;;;;45.23;23.20;;;;;;;;;;6596862;28;20572;-80
2022/12/15 13:26:42;;;;;;;48.70;24.77;;;;;;;;;;6574749;28;20210;-80
2022/12/15 13:30:00;;;;;;;40.53;22.13;;;;;;;;;;6616972;28;20163;-81
2022/12/15 13:33:15;;;;;;;43.47;24.43;;;;;;;;;;6580511;28;20231;-81
2022/12/15 13:36:40;;;;;;;43.07;20.70;;;;;;;;;;6612223;28;20177;-80
2022/12/15 13:39:52;;;;;;;43.07;22.37;;;;;;;;;;6676257;28;20174;-80
2022/12/15 13:43:02;;;;;;;43.77;22.27;;;;;;;;;;6657036;28;20216;-80
2022/12/15 13:46:19;;;;;;;39.60;22.00;;;;;;;;;;6600117;28;20173;-80
2022/12/15 13:49:35;;;;;;;37.80;22.17;;;;;;;;;;6567801;28;20272;-80
2022/12/15 13:52:50;;;;;;;42.93;24.37;;;;;;;;;;6568815;28;20177;-80
2022/12/15 13:56:24;;;;;;;30.10;19.40;;;;;;;;;;6600263;28;20185;-80
2022/12/15 13:59:47;;;;;;;29.43;16.60;;;;;;;;;;6583858;28;20260;-80
2022/12/15 14:03:05;;;;;;;31.33;17.37;;;;;;;;;;6582545;28;20220;-80
2022/12/15 14:06:15;;;;;;;28.63;17.60;;;;;;;;;;6555782;28;20188;-80
2022/12/15 14:09:28;;;;;;;28.90;14.97;;;;;;;;;;6571174;28;20182;-80
2022/12/15 14:12:38;;;;;;;32.30;17.27;;;;;;;;;;6632099;28;20179;-80
2022/12/15 14:15:53;;;;;;;40.30;20.70;;;;;;;;;;6566657;28;20185;-80
2022/12/15 14:19:07;;;;;;;41.43;22.10;;;;;;;;;;6603239;28;20175;-81
2022/12/15 14:22:22;;;;;;;43.70;24.17;;;;;;;;;;6593055;28;20320;-80
2022/12/15 14:25:33;;;;;;;121.30;79.93;;;;;;;;;;6623407;28;20197;-80
2022/12/15 14:28:44;;;;;;;96.53;61.67;;;;;;;;;;6675054;28;20166;-81
2022/12/15 14:31:56;;;;;;;57.03;38.73;;;;;;;;;;6675577;28;20592;-80
2022/12/15 14:35:17;;;;;;;46.90;30.40;;;;;;;;;;6603098;28;20277;-80
2022/12/15 14:38:31;;;;;;;44.10;25.20;;;;;;;;;;6604053;28;20565;-80
2022/12/15 14:41:44;;;;;;;41.43;21.93;;;;;;;;;;6561622;28;20198;-80
2022/12/15 14:44:55;;;;;;;45.53;23.97;;;;;;;;;;6597115;28;20658;-80
2022/12/15 14:48:07;;;;;;;60.27;26.83;;;;;;;;;;6606888;28;20170;-82
2022/12/15 14:51:17;;;;;;;46.93;22.57;;;;;;;;;;6631333;28;20185;-82
2022/12/15 14:54:30;;;;;;;76.20;39.13;;;;;;;;;;6675414;28;20253;-82
2022/12/15 14:57:40;;;;;;;65.90;36.30;;;;;;;;;;6674973;28;20170;-81
2022/12/15 15:45:53;;;;;;;68.20;36.97;;;;;;;;;;6623061;28;20586;-82
2022/12/15 15:49:08;;;;;;;63.90;33.93;;;;;;;;;;6626263;28;20567;-82
2022/12/15 15:52:18;;;;;;;65.00;32.73;;;;;;;;;;6625043;28;20183;-82
2022/12/15 15:55:30;;;;;;;76.07;38.23;;;;;;;;;;6626237;28;20867;-82
2022/12/15 15:58:42;;;;;;;78.83;37.07;;;;;;;;;;6622866;28;20172;-82
2022/12/15 16:01:54;;;;;;;76.90;39.20;;;;;;;;;;6633528;28;20570;-82
2022/12/15 16:05:04;;;;;;;79.07;39.70;;;;;;;;;;6653421;28;20190;-83
2022/12/15 16:08:16;;;;;;;71.73;38.43;;;;;;;;;;6652576;28;20163;-82
2022/12/15 16:11:29;;;;;;;69.47;36.60;;;;;;;;;;6652546;28;20186;-82
2022/12/15 16:14:40;;;;;;;78.60;40.10;;;;;;;;;;6652721;28;20669;-82
2022/12/15 16:17:50;;;;;;;92.83;44.90;;;;;;;;;;6653001;28;20175;-82
2022/12/15 16:21:00;;;;;;;88.20;43.20;;;;;;;;;;6652053;28;20287;-82
2022/12/15 16:24:18;;;;;;;83.33;41.20;;;;;;;;;;6652106;28;20308;-82
2022/12/15 16:27:29;;;;;;;92.53;45.43;;;;;;;;;;6651269;28;20178;-82
2022/12/15 16:30:40;;;;;;;101.90;47.73;;;;;;;;;;6651246;28;20221;-82
2022/12/15 16:33:50;;;;;;;110.00;50.83;;;;;;;;;;6652566;28;20555;-82
2022/12/15 16:37:01;;;;;;;116.97;52.20;;;;;;;;;;6651306;28;20265;-82
2022/12/15 16:40:13;;;;;;;121.03;54.90;;;;;;;;;;6650942;28;20179;-82
2022/12/15 16:43:24;;;;;;;120.63;53.07;;;;;;;;;;6651130;28;20318;-83
2022/12/15 16:46:34;;;;;;;115.90;53.87;;;;;;;;;;6651620;28;20177;-82
2022/12/15 16:49:45;;;;;;;103.90;46.03;;;;;;;;;;6651195;28;20176;-83
2022/12/15 16:52:56;;;;;;;121.00;51.17;;;;;;;;;;6650182;28;20582;-82
2022/12/15 16:56:07;;;;;;;111.70;49.77;;;;;;;;;;6650996;28;20281;-82
2022/12/15 16:59:18;;;;;;;105.33;47.60;;;;;;;;;;6650809;28;20171;-82
2022/12/15 17:02:29;;;;;;;109.53;49.43;;;;;;;;;;6651688;28;20750;-82
2022/12/15 17:05:41;;;;;;;125.57;53.63;;;;;;;;;;6651112;28;20183;-82
2022/12/15 17:08:53;;;;;;;153.13;62.70;;;;;;;;;;6651013;28;20170;-82
2022/12/15 17:12:03;;;;;;;180.83;69.87;;;;;;;;;;6650716;28;20255;-82
2022/12/15 17:15:18;;;;;;;159.57;63.67;;;;;;;;;;6632750;28;20528;-82
2022/12/15 17:18:28;;;;;;;137.57;58.57;;;;;;;;;;6650772;28;20644;-82
2022/12/15 17:22:11;;;;;;;174.77;74.23;;;;;;;;;;6650796;28;20207;-82
2022/12/15 17:29:29;;;;;;;148.80;65.03;;;;;;;;;;6650273;28;20588;-82
2022/12/15 17:32:44;;;;;;;139.53;61.07;;;;;;;;;;6650396;28;20269;-82
2022/12/15 17:35:56;;;;;;;157.77;66.00;;;;;;;;;;6649900;28;20167;-82
2022/12/15 17:39:08;;;;;;;155.93;64.90;;;;;;;;;;6650009;28;20178;-82
2022/12/15 17:42:19;;;;;;;156.37;65.03;;;;;;;;;;6649472;28;20256;-82
2022/12/15 17:45:30;;;;;;;156.47;66.73;;;;;;;;;;6650624;28;20230;-82
2022/12/15 17:48:40;;;;;;;217.03;90.03;;;;;;;;;;6649018;28;20225;-82
2022/12/15 17:51:56;;;;;;;166.93;69.17;;;;;;;;;;6649734;28;20163;-82
2022/12/15 17:55:20;;;;;;;157.53;65.10;;;;;;;;;;6649036;28;20516;-82
2022/12/15 17:58:30;;;;;;;179.30;75.57;;;;;;;;;;6649640;28;20175;-82
2022/12/15 18:52:44;;;;;;;390.50;121.90;;;;;;;;;;6619375;28;20231;-82
2022/12/15 18:55:55;;;;;;;390.27;124.80;;;;;;;;;;6622332;28;20251;-83
2022/12/15 18:59:09;;;;;;;404.67;128.57;;;;;;;;;;6622431;28;20175;-82
2022/12/15 19:02:20;;;;;;;413.33;132.27;;;;;;;;;;6621807;28;20218;-82
2022/12/15 19:05:32;;;;;;;421.87;142.90;;;;;;;;;;6621919;28;20160;-82
2022/12/15 19:08:42;;;;;;;365.97;121.03;;;;;;;;;;6621633;28;20176;-83
2022/12/15 19:12:26;;;;;;;369.70;127.33;;;;;;;;;;6622131;28;20174;-82
2022/12/15 19:15:30;;;;;;;467.37;187.63;;;;;;;;;;6621791;28;20218;-82
2022/12/15 19:22:28;;;;;;;557.43;213.53;;;;;;;;;;6622043;28;20194;-82
2022/12/15 19:25:39;;;;;;;559.97;213.47;;;;;;;;;;6622816;28;20171;-82
2022/12/15 19:28:49;;;;;;;522.90;212.17;;;;;;;;;;6621516;28;20207;-82
2022/12/15 19:31:59;;;;;;;556.43;214.80;;;;;;;;;;6621643;28;20529;-82
2022/12/15 19:35:10;;;;;;;510.03;194.77;;;;;;;;;;6621757;28;20183;-82
2022/12/15 19:38:23;;;;;;;488.40;180.20;;;;;;;;;;6621928;28;20210;-82
2022/12/15 19:41:34;;;;;;;505.60;180.23;;;;;;;;;;6622790;28;20203;-82
2022/12/15 19:44:45;;;;;;;480.43;174.13;;;;;;;;;;6621455;28;20184;-82
2022/12/15 19:47:55;;;;;;;488.57;183.57;;;;;;;;;;6622118;28;20221;-82
2022/12/15 19:51:11;;;;;;;466.03;165.97;;;;;;;;;;6620515;28;20228;-82
2022/12/15 19:54:22;;;;;;;436.83;158.07;;;;;;;;;;6621757;28;20171;-82
2022/12/15 19:57:32;;;;;;;439.13;157.77;;;;;;;;;;6620850;28;20618;-82
2022/12/15 20:00:43;;;;;;;445.77;156.10;;;;;;;;;;6619524;28;20164;-82
2022/12/15 20:03:53;;;;;;;446.13;156.27;;;;;;;;;;6621657;28;20278;-82
2022/12/15 20:07:03;;;;;;;405.90;142.37;;;;;;;;;;6626459;28;20174;-82
2022/12/15 20:10:18;;;;;;;406.80;140.73;;;;;;;;;;6626013;28;20175;-82
2022/12/15 20:13:28;;;;;;;322.27;119.40;;;;;;;;;;6625436;28;20180;-82
2022/12/15 20:16:38;;;;;;;334.80;124.60;;;;;;;;;;6625245;28;20171;-82
2022/12/15 20:19:49;;;;;;;380.57;135.90;;;;;;;;;;6624856;28;20175;-83
2022/12/15 20:23:02;;;;;;;388.03;137.83;;;;;;;;;;6626142;28;20225;-82
2022/12/15 20:26:12;;;;;;;374.60;130.60;;;;;;;;;;6623996;28;20318;-83
2022/12/15 20:29:24;;;;;;;373.13;134.30;;;;;;;;;;6624833;28;20234;-83
2022/12/15 20:32:34;;;;;;;361.27;132.20;;;;;;;;;;6620915;28;20225;-82
2022/12/15 20:35:45;;;;;;;366.70;133.10;;;;;;;;;;6625448;28;20513;-82
2022/12/15 20:38:56;;;;;;;368.33;129.33;;;;;;;;;;6622142;28;20174;-83
2022/12/15 20:42:10;;;;;;;350.43;128.27;;;;;;;;;;6623923;28;20290;-82
2022/12/15 20:45:22;;;;;;;448.27;164.13;;;;;;;;;;6622388;28;20222;-82
2022/12/15 20:48:33;;;;;;;472.03;179.13;;;;;;;;;;6625844;28;20231;-82
2022/12/15 20:51:44;;;;;;;500.83;199.53;;;;;;;;;;6626110;28;20223;-82
2022/12/15 20:54:55;;;;;;;505.13;201.33;;;;;;;;;;6624759;28;20222;-82
2022/12/15 20:58:05;;;;;;;559.93;222.27;;;;;;;;;;6625797;28;20206;-82
2022/12/15 21:01:17;;;;;;;631.23;265.07;;;;;;;;;;6624931;28;20254;-83
2022/12/15 21:04:28;;;;;;;765.20;325.47;;;;;;;;;;6625193;28;20183;-83
2022/12/15 21:07:39;;;;;;;683.00;287.23;;;;;;;;;;6621999;28;20640;-82
2022/12/15 21:10:51;;;;;;;589.37;233.53;;;;;;;;;;6625371;28;20171;-81
2022/12/15 21:14:03;;;;;;;473.40;173.50;;;;;;;;;;6625023;28;20229;-82
2022/12/15 21:17:14;;;;;;;338.50;127.73;;;;;;;;;;6623899;28;20172;-82
2022/12/15 21:20:24;;;;;;;306.87;122.00;;;;;;;;;;6628767;28;20540;-81
2022/12/15 21:23:35;;;;;;;291.03;114.90;;;;;;;;;;6628499;28;20215;-81
2022/12/15 21:26:45;;;;;;;339.27;128.97;;;;;;;;;;6627766;28;20192;-81
2022/12/15 21:29:56;;;;;;;312.67;121.13;;;;;;;;;;6626175;28;20175;-81
2022/12/15 21:33:06;;;;;;;307.70;122.43;;;;;;;;;;6629111;28;20172;-81
2022/12/15 21:36:17;;;;;;;273.63;107.53;;;;;;;;;;6626697;28;20164;-81
2022/12/15 21:39:31;;;;;;;265.63;108.57;;;;;;;;;;6623664;28;20512;-82
2022/12/15 21:42:42;;;;;;;368.83;132.07;;;;;;;;;;6621686;28;20229;-82
2022/12/15 21:45:52;;;;;;;394.30;140.23;;;;;;;;;;6622284;28;20168;-82
2022/12/15 21:49:16;;;;;;;323.00;114.97;;;;;;;;;;6623413;28;20172;-82
2022/12/15 21:52:26;;;;;;;339.37;121.37;;;;;;;;;;6622347;28;20305;-82
2022/12/15 21:55:39;;;;;;;318.10;114.50;;;;;;;;;;6622634;28;20207;-82
2022/12/15 21:58:51;;;;;;;249.03;99.30;;;;;;;;;;6622969;28;20214;-82
2022/12/15 22:02:18;;;;;;;344.57;129.03;;;;;;;;;;6622430;28;20571;-82
2022/12/15 22:05:29;;;;;;;332.73;124.77;;;;;;;;;;6620768;28;20534;-81
2022/12/15 22:08:39;;;;;;;256.63;100.57;;;;;;;;;;6630047;28;20175;-82
2022/12/15 22:11:52;;;;;;;259.37;97.20;;;;;;;;;;6641351;28;20168;-81
2022/12/15 22:15:03;;;;;;;270.47;101.23;;;;;;;;;;6634638;28;20176;-82
2022/12/15 22:18:18;;;;;;;263.40;99.73;;;;;;;;;;6627201;28;20183;-82
2022/12/15 22:21:28;;;;;;;259.60;96.23;;;;;;;;;;6620842;28;20212;-82
2022/12/15 22:24:39;;;;;;;270.30;104.33;;;;;;;;;;6622448;28;20567;-82
2022/12/15 22:27:49;;;;;;;292.00;109.53;;;;;;;;;;6622009;28;20175;-82
2022/12/15 22:31:01;;;;;;;334.90;121.07;;;;;;;;;;6621840;28;20270;-81
2022/12/15 22:34:22;;;;;;;274.40;101.30;;;;;;;;;;6622335;28;20630;-82
2022/12/15 22:37:32;;;;;;;293.93;108.27;;;;;;;;;;6620302;28;20211;-82
2022/12/15 22:40:43;;;;;;;346.27;124.63;;;;;;;;;;6621930;28;20171;-82
2022/12/15 22:43:55;;;;;;;266.20;97.03;;;;;;;;;;6621737;28;20179;-82
2022/12/15 22:47:07;;;;;;;256.90;99.77;;;;;;;;;;6621942;28;20172;-82
2022/12/15 22:50:22;;;;;;;293.30;115.07;;;;;;;;;;6621260;28;20232;-82
2022/12/15 22:53:33;;;;;;;263.30;105.73;;;;;;;;;;6621939;28;20163;-82
2022/12/15 22:56:44;;;;;;;268.30;98.33;;;;;;;;;;6621813;28;20172;-82
2022/12/15 23:00:01;;;;;;;261.37;99.50;;;;;;;;;;6621521;28;20589;-82
2022/12/15 23:03:12;;;;;;;288.73;101.90;;;;;;;;;;6619543;28;20212;-82
2022/12/15 23:06:23;;;;;;;266.27;98.23;;;;;;;;;;6620992;28;20227;-82
2022/12/15 23:09:33;;;;;;;224.13;85.83;;;;;;;;;;6621139;28;20183;-82
2022/12/15 23:12:43;;;;;;;243.77;91.30;;;;;;;;;;6621551;28;20309;-82
2022/12/15 23:19:22;;;;;;;286.73;104.17;;;;;;;;;;6622579;28;20171;-82
2022/12/15 23:22:33;;;;;;;366.83;122.10;;;;;;;;;;6622071;28;20199;-82
2022/12/15 23:25:44;;;;;;;290.73;101.37;;;;;;;;;;6621801;28;20648;-82
2022/12/15 23:28:54;;;;;;;345.67;115.80;;;;;;;;;;6622034;28;20225;-82
2022/12/15 23:32:04;;;;;;;252.20;88.63;;;;;;;;;;6621983;28;20233;-81
2022/12/15 23:35:15;;;;;;;275.73;96.70;;;;;;;;;;6622043;28;20176;-82
2022/12/15 23:38:25;;;;;;;215.00;79.73;;;;;;;;;;6624358;28;20186;-82
2022/12/15 23:41:36;;;;;;;200.90;77.60;;;;;;;;;;6627024;28;20203;-81
2022/12/15 23:44:46;;;;;;;231.43;83.97;;;;;;;;;;6626677;28;20186;-82
2022/12/15 23:47:56;;;;;;;173.00;66.83;;;;;;;;;;6627181;28;20170;-82
2022/12/15 23:51:08;;;;;;;181.07;68.17;;;;;;;;;;6626784;28;20556;-82
2022/12/15 23:54:18;;;;;;;188.73;72.67;;;;;;;;;;6627122;28;20172;-82
2022/12/15 23:57:29;;;;;;;190.00;74.07;;;;;;;;;;6626309;28;20687;-82
